Terminal Aerodrome Forecast
Issued by NWS

Home | Current Version | Previous Version | Text Only | Print | Product List | Glossary On
Versions: 1 2 3 4 5 6 7 8 9 10 11 12 13 14 15 16 17 18 19 20 21 22 23 24 25 26 27 28
000
FTUS44 KHGX 021740
TAFUTS
TAF
KUTS 021740Z 0218/0318 16005KT P6SM VCTS BKN035CB
      TEMPO 0219/0221 -TSRA OVC025CB
     FM022100 16011KT P6SM SCT045
     FM030100 16007KT P6SM FEW050
     FM031000 17003KT P6SM BKN015
     FM031500 17004KT P6SM VCSH FEW030 BKN040=

USA.gov is the U.S. government's official web portal to all federal, state and local government web resources and services.